sensor_id;sensor_type;location;lat;lon;timestamp;P1;durP1;ratioP1;P2;durP2;ratioP2
67757;SDS011;54562;47.620;18.786;2023-06-22T00:02:19;10.80;;;4.40;;
67757;SDS011;54562;47.620;18.786;2023-06-22T00:05:25;12.00;;;4.50;;
67757;SDS011;54562;47.620;18.786;2023-06-22T00:08:31;12.90;;;4.90;;
67757;SDS011;54562;47.620;18.786;2023-06-22T00:11:38;11.30;;;4.50;;
67757;SDS011;54562;47.620;18.786;2023-06-22T00:14:44;12.30;;;5.00;;
67757;SDS011;54562;47.620;18.786;2023-06-22T00:29:28;11.30;;;4.50;;
67757;SDS011;54562;47.620;18.786;2023-06-22T00:32:43;11.00;;;4.70;;
67757;SDS011;54562;47.620;18.786;2023-06-22T00:35:50;8.90;;;4.50;;
67757;SDS011;54562;47.620;18.786;2023-06-22T00:38:57;15.70;;;5.20;;
67757;SDS011;54562;47.620;18.786;2023-06-22T00:42:05;13.60;;;4.70;;
67757;SDS011;54562;47.620;18.786;2023-06-22T00:45:12;11.30;;;5.20;;
67757;SDS011;54562;47.620;18.786;2023-06-22T00:48:19;14.00;;;4.90;;
67757;SDS011;54562;47.620;18.786;2023-06-22T00:51:26;10.40;;;4.50;;
67757;SDS011;54562;47.620;18.786;2023-06-22T00:54:42;13.50;;;5.50;;
67757;SDS011;54562;47.620;18.786;2023-06-22T00:57:49;11.30;;;5.10;;
67757;SDS011;54562;47.620;18.786;2023-06-22T01:00:59;12.90;;;5.20;;
67757;SDS011;54562;47.620;18.786;2023-06-22T01:04:21;16.10;;;5.30;;
67757;SDS011;54562;47.620;18.786;2023-06-22T01:07:30;13.30;;;5.70;;
67757;SDS011;54562;47.620;18.786;2023-06-22T01:10:40;10.70;;;4.70;;
67757;SDS011;54562;47.620;18.786;2023-06-22T01:13:50;11.50;;;5.10;;
67757;SDS011;54562;47.620;18.786;2023-06-22T01:16:59;14.70;;;5.10;;
67757;SDS011;54562;47.620;18.786;2023-06-22T01:20:07;12.30;;;5.20;;
67757;SDS011;54562;47.620;18.786;2023-06-22T01:23:20;14.10;;;5.30;;
67757;SDS011;54562;47.620;18.786;2023-06-22T01:26:37;16.50;;;5.70;;
67757;SDS011;54562;47.620;18.786;2023-06-22T01:29:45;14.10;;;5.50;;
67757;SDS011;54562;47.620;18.786;2023-06-22T01:32:53;10.40;;;4.80;;
67757;SDS011;54562;47.620;18.786;2023-06-22T01:36:00;10.20;;;5.20;;
67757;SDS011;54562;47.620;18.786;2023-06-22T01:39:07;12.40;;;5.00;;
67757;SDS011;54562;47.620;18.786;2023-06-22T01:42:14;13.30;;;4.90;;
67757;SDS011;54562;47.620;18.786;2023-06-22T01:45:20;11.40;;;4.80;;
67757;SDS011;54562;47.620;18.786;2023-06-22T01:48:27;11.90;;;4.60;;
67757;SDS011;54562;47.620;18.786;2023-06-22T01:51:34;15.00;;;5.20;;
67757;SDS011;54562;47.620;18.786;2023-06-22T01:54:40;9.90;;;4.50;;
67757;SDS011;54562;47.620;18.786;2023-06-22T01:57:46;13.30;;;4.90;;
67757;SDS011;54562;47.620;18.786;2023-06-22T02:00:53;9.00;;;4.40;;
67757;SDS011;54562;47.620;18.786;2023-06-22T02:04:05;11.50;;;5.20;;
67757;SDS011;54562;47.620;18.786;2023-06-22T02:07:15;11.50;;;4.70;;
67757;SDS011;54562;47.620;18.786;2023-06-22T02:10:23;10.70;;;4.80;;
67757;SDS011;54562;47.620;18.786;2023-06-22T02:13:30;12.70;;;4.80;;
67757;SDS011;54562;47.620;18.786;2023-06-22T02:16:37;14.80;;;5.30;;
67757;SDS011;54562;47.620;18.786;2023-06-22T02:19:44;11.40;;;5.10;;
67757;SDS011;54562;47.620;18.786;2023-06-22T02:22:50;10.40;;;4.70;;
67757;SDS011;54562;47.620;18.786;2023-06-22T02:25:56;12.10;;;4.90;;
67757;SDS011;54562;47.620;18.786;2023-06-22T02:29:02;13.30;;;5.10;;
67757;SDS011;54562;47.620;18.786;2023-06-22T02:32:08;9.50;;;4.90;;
67757;SDS011;54562;47.620;18.786;2023-06-22T02:35:15;15.40;;;5.30;;
67757;SDS011;54562;47.620;18.786;2023-06-22T02:38:21;9.30;;;4.60;;
67757;SDS011;54562;47.620;18.786;2023-06-22T02:41:27;11.10;;;5.00;;
67757;SDS011;54562;47.620;18.786;2023-06-22T02:44:33;11.40;;;5.20;;
67757;SDS011;54562;47.620;18.786;2023-06-22T02:47:39;10.60;;;5.10;;
67757;SDS011;54562;47.620;18.786;2023-06-22T02:50:46;12.00;;;5.40;;
67757;SDS011;54562;47.620;18.786;2023-06-22T02:53:52;11.90;;;5.00;;
67757;SDS011;54562;47.620;18.786;2023-06-22T02:57:00;10.90;;;5.20;;
67757;SDS011;54562;47.620;18.786;2023-06-22T03:00:08;11.90;;;5.10;;
67757;SDS011;54562;47.620;18.786;2023-06-22T03:03:20;12.50;;;5.40;;
67757;SDS011;54562;47.620;18.786;2023-06-22T03:06:29;13.50;;;5.70;;
67757;SDS011;54562;47.620;18.786;2023-06-22T03:09:35;13.10;;;5.80;;
67757;SDS011;54562;47.620;18.786;2023-06-22T03:12:41;10.10;;;5.30;;
67757;SDS011;54562;47.620;18.786;2023-06-22T03:15:48;11.10;;;5.20;;
67757;SDS011;54562;47.620;18.786;2023-06-22T03:18:54;12.50;;;5.00;;
67757;SDS011;54562;47.620;18.786;2023-06-22T03:22:00;13.10;;;5.80;;
67757;SDS011;54562;47.620;18.786;2023-06-22T03:25:07;9.60;;;4.60;;
67757;SDS011;54562;47.620;18.786;2023-06-22T03:31:21;10.20;;;5.00;;
67757;SDS011;54562;47.620;18.786;2023-06-22T03:34:27;11.80;;;5.20;;
67757;SDS011;54562;47.620;18.786;2023-06-22T03:37:37;12.60;;;5.00;;
67757;SDS011;54562;47.620;18.786;2023-06-22T03:40:43;12.50;;;5.50;;
67757;SDS011;54562;47.620;18.786;2023-06-22T03:43:50;10.70;;;5.00;;
67757;SDS011;54562;47.620;18.786;2023-06-22T03:46:56;11.80;;;5.10;;
67757;SDS011;54562;47.620;18.786;2023-06-22T03:50:02;11.30;;;5.20;;
67757;SDS011;54562;47.620;18.786;2023-06-22T03:53:09;9.50;;;4.90;;
67757;SDS011;54562;47.620;18.786;2023-06-22T03:56:16;16.10;;;5.60;;
67757;SDS011;54562;47.620;18.786;2023-06-22T03:59:23;14.90;;;5.80;;
67757;SDS011;54562;47.620;18.786;2023-06-22T04:02:30;12.30;;;5.70;;
67757;SDS011;54562;47.620;18.786;2023-06-22T04:05:36;12.90;;;5.60;;
67757;SDS011;54562;47.620;18.786;2023-06-22T04:08:44;11.50;;;5.90;;
67757;SDS011;54562;47.620;18.786;2023-06-22T04:11:54;10.00;;;6.00;;
67757;SDS011;54562;47.620;18.786;2023-06-22T04:15:00;14.30;;;5.70;;
67757;SDS011;54562;47.620;18.786;2023-06-22T04:18:07;14.30;;;6.00;;
67757;SDS011;54562;47.620;18.786;2023-06-22T04:21:14;11.30;;;5.30;;
67757;SDS011;54562;47.620;18.786;2023-06-22T04:24:22;13.70;;;5.30;;
67757;SDS011;54562;47.620;18.786;2023-06-22T04:27:28;15.70;;;5.90;;
67757;SDS011;54562;47.620;18.786;2023-06-22T04:30:35;15.10;;;5.80;;
67757;SDS011;54562;47.620;18.786;2023-06-22T04:33:49;14.00;;;5.90;;
67757;SDS011;54562;47.620;18.786;2023-06-22T04:36:56;15.50;;;6.20;;
67757;SDS011;54562;47.620;18.786;2023-06-22T04:40:03;15.90;;;5.40;;
67757;SDS011;54562;47.620;18.786;2023-06-22T04:43:10;16.60;;;5.50;;
67757;SDS011;54562;47.620;18.786;2023-06-22T04:46:16;13.40;;;5.90;;
67757;SDS011;54562;47.620;18.786;2023-06-22T04:49:23;11.70;;;5.80;;
67757;SDS011;54562;47.620;18.786;2023-06-22T04:52:36;11.80;;;5.10;;
67757;SDS011;54562;47.620;18.786;2023-06-22T04:55:42;11.90;;;5.10;;
67757;SDS011;54562;47.620;18.786;2023-06-22T04:58:48;13.90;;;5.40;;
67757;SDS011;54562;47.620;18.786;2023-06-22T05:01:55;11.80;;;5.50;;
67757;SDS011;54562;47.620;18.786;2023-06-22T05:05:02;11.00;;;4.80;;
67757;SDS011;54562;47.620;18.786;2023-06-22T05:08:11;11.90;;;5.20;;
67757;SDS011;54562;47.620;18.786;2023-06-22T05:11:18;14.00;;;5.30;;
67757;SDS011;54562;47.620;18.786;2023-06-22T05:14:24;12.80;;;5.90;;
67757;SDS011;54562;47.620;18.786;2023-06-22T05:17:30;11.30;;;5.50;;
67757;SDS011;54562;47.620;18.786;2023-06-22T05:20:37;12.20;;;4.90;;
67757;SDS011;54562;47.620;18.786;2023-06-22T05:23:43;14.70;;;5.60;;
67757;SDS011;54562;47.620;18.786;2023-06-22T05:26:49;12.80;;;5.80;;
67757;SDS011;54562;47.620;18.786;2023-06-22T05:29:55;13.10;;;6.00;;
67757;SDS011;54562;47.620;18.786;2023-06-22T05:33:02;11.50;;;6.30;;
67757;SDS011;54562;47.620;18.786;2023-06-22T05:36:08;12.20;;;6.10;;
67757;SDS011;54562;47.620;18.786;2023-06-22T05:39:15;13.60;;;6.60;;
67757;SDS011;54562;47.620;18.786;2023-06-22T05:42:22;14.00;;;6.30;;
67757;SDS011;54562;47.620;18.786;2023-06-22T05:45:29;12.50;;;6.50;;
67757;SDS011;54562;47.620;18.786;2023-06-22T05:48:35;15.30;;;6.50;;
67757;SDS011;54562;47.620;18.786;2023-06-22T05:51:41;13.30;;;6.40;;
67757;SDS011;54562;47.620;18.786;2023-06-22T05:54:48;16.80;;;6.80;;
67757;SDS011;54562;47.620;18.786;2023-06-22T05:57:54;12.50;;;6.10;;
67757;SDS011;54562;47.620;18.786;2023-06-22T06:01:00;14.40;;;6.30;;
67757;SDS011;54562;47.620;18.786;2023-06-22T06:04:07;12.80;;;6.50;;
67757;SDS011;54562;47.620;18.786;2023-06-22T06:10:55;12.60;;;5.60;;
67757;SDS011;54562;47.620;18.786;2023-06-22T06:14:02;11.40;;;5.20;;
67757;SDS011;54562;47.620;18.786;2023-06-22T06:17:08;14.00;;;5.90;;
67757;SDS011;54562;47.620;18.786;2023-06-22T06:20:15;14.30;;;5.30;;
67757;SDS011;54562;47.620;18.786;2023-06-22T06:26:29;12.60;;;4.30;;
67757;SDS011;54562;47.620;18.786;2023-06-22T06:29:36;10.50;;;4.10;;
67757;SDS011;54562;47.620;18.786;2023-06-22T06:32:43;10.00;;;3.70;;
67757;SDS011;54562;47.620;18.786;2023-06-22T06:35:51;10.40;;;3.80;;
67757;SDS011;54562;47.620;18.786;2023-06-22T06:38:59;8.40;;;3.50;;
67757;SDS011;54562;47.620;18.786;2023-06-22T06:42:06;10.10;;;3.80;;
67757;SDS011;54562;47.620;18.786;2023-06-22T06:45:15;11.30;;;4.00;;
67757;SDS011;54562;47.620;18.786;2023-06-22T06:48:22;12.30;;;3.90;;
67757;SDS011;54562;47.620;18.786;2023-06-22T06:51:28;11.30;;;3.70;;
67757;SDS011;54562;47.620;18.786;2023-06-22T06:54:35;10.80;;;3.80;;
67757;SDS011;54562;47.620;18.786;2023-06-22T06:57:41;10.10;;;3.70;;
67757;SDS011;54562;47.620;18.786;2023-06-22T07:00:51;9.80;;;3.40;;
67757;SDS011;54562;47.620;18.786;2023-06-22T07:03:58;8.80;;;3.30;;
67757;SDS011;54562;47.620;18.786;2023-06-22T07:07:05;12.00;;;3.30;;
67757;SDS011;54562;47.620;18.786;2023-06-22T07:10:11;11.00;;;3.50;;
67757;SDS011;54562;47.620;18.786;2023-06-22T07:13:18;9.30;;;4.00;;
67757;SDS011;54562;47.620;18.786;2023-06-22T07:16:25;9.10;;;3.40;;
67757;SDS011;54562;47.620;18.786;2023-06-22T07:19:33;8.90;;;3.50;;
67757;SDS011;54562;47.620;18.786;2023-06-22T07:22:39;13.20;;;3.70;;
67757;SDS011;54562;47.620;18.786;2023-06-22T07:25:47;14.30;;;4.60;;
67757;SDS011;54562;47.620;18.786;2023-06-22T07:28:53;12.30;;;4.30;;
67757;SDS011;54562;47.620;18.786;2023-06-22T07:32:00;9.30;;;4.10;;
67757;SDS011;54562;47.620;18.786;2023-06-22T07:35:08;10.80;;;4.20;;
67757;SDS011;54562;47.620;18.786;2023-06-22T07:38:15;10.10;;;4.40;;
67757;SDS011;54562;47.620;18.786;2023-06-22T07:41:21;12.20;;;4.50;;
67757;SDS011;54562;47.620;18.786;2023-06-22T07:44:28;8.90;;;3.90;;
67757;SDS011;54562;47.620;18.786;2023-06-22T07:47:36;9.30;;;3.80;;
67757;SDS011;54562;47.620;18.786;2023-06-22T07:50:42;9.90;;;3.40;;
67757;SDS011;54562;47.620;18.786;2023-06-22T07:53:48;10.20;;;3.20;;
67757;SDS011;54562;47.620;18.786;2023-06-22T07:56:56;8.30;;;3.30;;
67757;SDS011;54562;47.620;18.786;2023-06-22T08:00:04;10.60;;;3.10;;
67757;SDS011;54562;47.620;18.786;2023-06-22T08:03:16;10.90;;;3.50;;
67757;SDS011;54562;47.620;18.786;2023-06-22T08:06:23;12.00;;;3.70;;
67757;SDS011;54562;47.620;18.786;2023-06-22T08:09:30;8.70;;;3.20;;
67757;SDS011;54562;47.620;18.786;2023-06-22T08:12:37;7.20;;;3.10;;
67757;SDS011;54562;47.620;18.786;2023-06-22T08:15:43;10.10;;;3.30;;
67757;SDS011;54562;47.620;18.786;2023-06-22T08:18:52;9.60;;;3.20;;
67757;SDS011;54562;47.620;18.786;2023-06-22T08:22:00;8.50;;;3.30;;
67757;SDS011;54562;47.620;18.786;2023-06-22T08:25:08;8.60;;;3.20;;
67757;SDS011;54562;47.620;18.786;2023-06-22T08:28:16;10.10;;;3.80;;
67757;SDS011;54562;47.620;18.786;2023-06-22T08:31:22;9.30;;;3.30;;
67757;SDS011;54562;47.620;18.786;2023-06-22T08:34:29;10.00;;;3.60;;
67757;SDS011;54562;47.620;18.786;2023-06-22T08:37:35;8.70;;;3.80;;
67757;SDS011;54562;47.620;18.786;2023-06-22T08:40:44;10.60;;;3.50;;
67757;SDS011;54562;47.620;18.786;2023-06-22T08:43:51;8.80;;;4.50;;
67757;SDS011;54562;47.620;18.786;2023-06-22T08:46:57;9.40;;;4.30;;
67757;SDS011;54562;47.620;18.786;2023-06-22T08:50:04;9.70;;;5.20;;
67757;SDS011;54562;47.620;18.786;2023-06-22T08:53:12;8.80;;;4.30;;
67757;SDS011;54562;47.620;18.786;2023-06-22T08:56:18;12.20;;;5.60;;
67757;SDS011;54562;47.620;18.786;2023-06-22T08:59:25;10.50;;;6.00;;
67757;SDS011;54562;47.620;18.786;2023-06-22T09:02:32;9.30;;;5.60;;
67757;SDS011;54562;47.620;18.786;2023-06-22T09:05:39;12.30;;;5.90;;
67757;SDS011;54562;47.620;18.786;2023-06-22T09:08:45;9.20;;;6.00;;
67757;SDS011;54562;47.620;18.786;2023-06-22T09:11:52;10.40;;;5.70;;
67757;SDS011;54562;47.620;18.786;2023-06-22T09:14:58;10.20;;;6.50;;
67757;SDS011;54562;47.620;18.786;2023-06-22T09:18:06;8.90;;;6.00;;
67757;SDS011;54562;47.620;18.786;2023-06-22T09:21:13;8.80;;;5.90;;
67757;SDS011;54562;47.620;18.786;2023-06-22T09:24:20;10.90;;;5.80;;
67757;SDS011;54562;47.620;18.786;2023-06-22T09:27:27;9.90;;;6.20;;
67757;SDS011;54562;47.620;18.786;2023-06-22T09:30:33;9.40;;;5.70;;
67757;SDS011;54562;47.620;18.786;2023-06-22T09:33:40;10.50;;;5.60;;
67757;SDS011;54562;47.620;18.786;2023-06-22T09:36:46;11.60;;;5.90;;
67757;SDS011;54562;47.620;18.786;2023-06-22T09:39:53;8.90;;;5.90;;
67757;SDS011;54562;47.620;18.786;2023-06-22T09:42:59;11.80;;;6.00;;
67757;SDS011;54562;47.620;18.786;2023-06-22T09:46:05;11.90;;;6.00;;
67757;SDS011;54562;47.620;18.786;2023-06-22T09:49:12;11.20;;;6.20;;
67757;SDS011;54562;47.620;18.786;2023-06-22T09:52:19;10.50;;;5.90;;
67757;SDS011;54562;47.620;18.786;2023-06-22T09:55:30;9.80;;;6.10;;
67757;SDS011;54562;47.620;18.786;2023-06-22T09:58:37;13.40;;;6.20;;
67757;SDS011;54562;47.620;18.786;2023-06-22T10:01:43;10.00;;;6.00;;
67757;SDS011;54562;47.620;18.786;2023-06-22T10:04:49;10.10;;;6.10;;
67757;SDS011;54562;47.620;18.786;2023-06-22T10:08:11;11.70;;;5.90;;
67757;SDS011;54562;47.620;18.786;2023-06-22T10:11:18;9.80;;;6.10;;
67757;SDS011;54562;47.620;18.786;2023-06-22T10:14:31;11.00;;;6.10;;
67757;SDS011;54562;47.620;18.786;2023-06-22T10:17:37;8.40;;;6.10;;
67757;SDS011;54562;47.620;18.786;2023-06-22T10:20:46;13.00;;;6.90;;
67757;SDS011;54562;47.620;18.786;2023-06-22T10:23:54;12.90;;;6.60;;
67757;SDS011;54562;47.620;18.786;2023-06-22T10:27:01;13.00;;;6.40;;
67757;SDS011;54562;47.620;18.786;2023-06-22T10:30:08;12.30;;;6.70;;
67757;SDS011;54562;47.620;18.786;2023-06-22T10:33:16;11.00;;;6.40;;
67757;SDS011;54562;47.620;18.786;2023-06-22T10:36:23;13.00;;;6.80;;
67757;SDS011;54562;47.620;18.786;2023-06-22T10:39:29;11.80;;;6.70;;
67757;SDS011;54562;47.620;18.786;2023-06-22T10:42:35;11.80;;;7.30;;
67757;SDS011;54562;47.620;18.786;2023-06-22T10:45:42;13.00;;;6.80;;
67757;SDS011;54562;47.620;18.786;2023-06-22T10:48:48;10.70;;;6.30;;
67757;SDS011;54562;47.620;18.786;2023-06-22T10:51:57;10.50;;;6.90;;
67757;SDS011;54562;47.620;18.786;2023-06-22T10:55:04;11.40;;;6.70;;
67757;SDS011;54562;47.620;18.786;2023-06-22T10:58:11;11.90;;;7.00;;
67757;SDS011;54562;47.620;18.786;2023-06-22T11:01:18;12.20;;;7.10;;
67757;SDS011;54562;47.620;18.786;2023-06-22T11:04:38;13.50;;;7.20;;
67757;SDS011;54562;47.620;18.786;2023-06-22T11:07:44;12.10;;;6.60;;
67757;SDS011;54562;47.620;18.786;2023-06-22T11:10:54;11.80;;;6.30;;
67757;SDS011;54562;47.620;18.786;2023-06-22T11:14:01;9.60;;;5.80;;
67757;SDS011;54562;47.620;18.786;2023-06-22T11:17:07;11.40;;;5.60;;
67757;SDS011;54562;47.620;18.786;2023-06-22T11:20:13;12.60;;;5.70;;
67757;SDS011;54562;47.620;18.786;2023-06-22T11:23:20;12.00;;;6.20;;
67757;SDS011;54562;47.620;18.786;2023-06-22T11:26:29;10.80;;;5.80;;
67757;SDS011;54562;47.620;18.786;2023-06-22T11:29:37;11.50;;;5.60;;
67757;SDS011;54562;47.620;18.786;2023-06-22T11:32:43;11.90;;;5.70;;
67757;SDS011;54562;47.620;18.786;2023-06-22T11:35:50;9.50;;;5.40;;
67757;SDS011;54562;47.620;18.786;2023-06-22T11:38:56;9.80;;;5.30;;
67757;SDS011;54562;47.620;18.786;2023-06-22T11:42:02;12.50;;;5.40;;
67757;SDS011;54562;47.620;18.786;2023-06-22T11:45:09;13.10;;;5.20;;
67757;SDS011;54562;47.620;18.786;2023-06-22T11:48:16;11.30;;;5.60;;
67757;SDS011;54562;47.620;18.786;2023-06-22T11:51:22;11.40;;;6.00;;
67757;SDS011;54562;47.620;18.786;2023-06-22T11:54:28;12.70;;;6.00;;
67757;SDS011;54562;47.620;18.786;2023-06-22T11:57:35;12.60;;;6.00;;
67757;SDS011;54562;47.620;18.786;2023-06-22T12:00:43;11.10;;;5.30;;
67757;SDS011;54562;47.620;18.786;2023-06-22T12:03:54;10.60;;;5.50;;
67757;SDS011;54562;47.620;18.786;2023-06-22T12:07:00;10.70;;;5.10;;
67757;SDS011;54562;47.620;18.786;2023-06-22T12:10:07;11.00;;;5.40;;
67757;SDS011;54562;47.620;18.786;2023-06-22T12:13:14;12.40;;;5.30;;
67757;SDS011;54562;47.620;18.786;2023-06-22T12:16:21;10.80;;;5.60;;
67757;SDS011;54562;47.620;18.786;2023-06-22T12:19:27;17.90;;;5.80;;
67757;SDS011;54562;47.620;18.786;2023-06-22T12:22:34;9.40;;;5.70;;
67757;SDS011;54562;47.620;18.786;2023-06-22T12:25:41;10.40;;;5.80;;
67757;SDS011;54562;47.620;18.786;2023-06-22T12:28:49;11.00;;;5.90;;
67757;SDS011;54562;47.620;18.786;2023-06-22T12:31:55;9.60;;;5.60;;
67757;SDS011;54562;47.620;18.786;2023-06-22T12:35:02;11.10;;;6.40;;
67757;SDS011;54562;47.620;18.786;2023-06-22T12:38:10;9.30;;;5.90;;
67757;SDS011;54562;47.620;18.786;2023-06-22T12:41:16;9.60;;;5.80;;
67757;SDS011;54562;47.620;18.786;2023-06-22T12:44:23;8.90;;;6.20;;
67757;SDS011;54562;47.620;18.786;2023-06-22T12:47:29;10.60;;;5.90;;
67757;SDS011;54562;47.620;18.786;2023-06-22T12:50:35;11.60;;;6.10;;
67757;SDS011;54562;47.620;18.786;2023-06-22T12:53:42;12.80;;;6.10;;
67757;SDS011;54562;47.620;18.786;2023-06-22T12:56:49;12.00;;;6.00;;
67757;SDS011;54562;47.620;18.786;2023-06-22T12:59:58;9.40;;;6.40;;
67757;SDS011;54562;47.620;18.786;2023-06-22T13:03:04;11.30;;;5.90;;
67757;SDS011;54562;47.620;18.786;2023-06-22T13:06:13;12.10;;;6.10;;
67757;SDS011;54562;47.620;18.786;2023-06-22T13:09:19;10.30;;;5.80;;
67757;SDS011;54562;47.620;18.786;2023-06-22T13:12:26;10.90;;;6.00;;
67757;SDS011;54562;47.620;18.786;2023-06-22T13:15:32;12.50;;;6.60;;
67757;SDS011;54562;47.620;18.786;2023-06-22T13:18:39;11.90;;;6.30;;
67757;SDS011;54562;47.620;18.786;2023-06-22T13:21:45;10.80;;;6.70;;
67757;SDS011;54562;47.620;18.786;2023-06-22T13:24:51;11.00;;;6.20;;
67757;SDS011;54562;47.620;18.786;2023-06-22T13:27:58;10.00;;;6.60;;
67757;SDS011;54562;47.620;18.786;2023-06-22T13:31:09;10.20;;;6.30;;
67757;SDS011;54562;47.620;18.786;2023-06-22T13:34:15;10.90;;;6.20;;
67757;SDS011;54562;47.620;18.786;2023-06-22T13:37:22;11.30;;;6.40;;
67757;SDS011;54562;47.620;18.786;2023-06-22T13:40:31;11.50;;;6.80;;
67757;SDS011;54562;47.620;18.786;2023-06-22T13:43:38;11.20;;;6.60;;
67757;SDS011;54562;47.620;18.786;2023-06-22T13:46:45;11.90;;;6.70;;
67757;SDS011;54562;47.620;18.786;2023-06-22T13:49:52;12.40;;;6.60;;
67757;SDS011;54562;47.620;18.786;2023-06-22T13:52:58;10.80;;;6.40;;
67757;SDS011;54562;47.620;18.786;2023-06-22T13:56:04;11.20;;;6.40;;
67757;SDS011;54562;47.620;18.786;2023-06-22T13:59:11;11.10;;;6.20;;
67757;SDS011;54562;47.620;18.786;2023-06-22T14:02:17;11.10;;;6.60;;
67757;SDS011;54562;47.620;18.786;2023-06-22T14:05:24;13.40;;;6.60;;
67757;SDS011;54562;47.620;18.786;2023-06-22T14:08:31;11.20;;;6.40;;
67757;SDS011;54562;47.620;18.786;2023-06-22T14:11:40;10.10;;;6.50;;
67757;SDS011;54562;47.620;18.786;2023-06-22T14:14:47;10.50;;;6.20;;
67757;SDS011;54562;47.620;18.786;2023-06-22T14:17:53;14.20;;;6.30;;
67757;SDS011;54562;47.620;18.786;2023-06-22T14:21:00;11.30;;;6.50;;
67757;SDS011;54562;47.620;18.786;2023-06-22T14:24:06;12.90;;;6.30;;
67757;SDS011;54562;47.620;18.786;2023-06-22T14:27:13;11.20;;;6.30;;
67757;SDS011;54562;47.620;18.786;2023-06-22T14:30:19;15.70;;;6.90;;
67757;SDS011;54562;47.620;18.786;2023-06-22T14:33:25;14.80;;;6.80;;
67757;SDS011;54562;47.620;18.786;2023-06-22T14:36:32;11.30;;;6.50;;
67757;SDS011;54562;47.620;18.786;2023-06-22T14:39:39;11.70;;;6.40;;
67757;SDS011;54562;47.620;18.786;2023-06-22T14:42:45;10.10;;;6.30;;
67757;SDS011;54562;47.620;18.786;2023-06-22T14:45:51;10.90;;;6.80;;
67757;SDS011;54562;47.620;18.786;2023-06-22T14:48:58;10.60;;;6.60;;
67757;SDS011;54562;47.620;18.786;2023-06-22T14:52:04;11.90;;;7.20;;
67757;SDS011;54562;47.620;18.786;2023-06-22T14:55:11;13.10;;;7.20;;
67757;SDS011;54562;47.620;18.786;2023-06-22T14:58:17;13.30;;;7.00;;
67757;SDS011;54562;47.620;18.786;2023-06-22T15:01:23;11.90;;;7.60;;
67757;SDS011;54562;47.620;18.786;2023-06-22T15:04:30;13.10;;;7.60;;
67757;SDS011;54562;47.620;18.786;2023-06-22T15:07:38;14.30;;;7.50;;
67757;SDS011;54562;47.620;18.786;2023-06-22T15:10:44;16.40;;;7.50;;
67757;SDS011;54562;47.620;18.786;2023-06-22T15:13:51;14.50;;;7.70;;
67757;SDS011;54562;47.620;18.786;2023-06-22T15:16:57;13.60;;;8.10;;
67757;SDS011;54562;47.620;18.786;2023-06-22T15:20:04;11.60;;;8.10;;
67757;SDS011;54562;47.620;18.786;2023-06-22T15:23:14;14.70;;;7.80;;
67757;SDS011;54562;47.620;18.786;2023-06-22T15:26:20;11.20;;;7.60;;
67757;SDS011;54562;47.620;18.786;2023-06-22T15:29:28;13.10;;;8.40;;
67757;SDS011;54562;47.620;18.786;2023-06-22T15:32:37;13.80;;;7.90;;
67757;SDS011;54562;47.620;18.786;2023-06-22T15:35:47;12.70;;;8.10;;
67757;SDS011;54562;47.620;18.786;2023-06-22T15:38:53;13.00;;;8.10;;
67757;SDS011;54562;47.620;18.786;2023-06-22T15:41:59;17.90;;;8.40;;
67757;SDS011;54562;47.620;18.786;2023-06-22T15:45:07;13.00;;;8.10;;
67757;SDS011;54562;47.620;18.786;2023-06-22T15:48:14;12.20;;;7.70;;
67757;SDS011;54562;47.620;18.786;2023-06-22T15:51:20;13.00;;;7.80;;
67757;SDS011;54562;47.620;18.786;2023-06-22T15:54:26;10.90;;;7.70;;
67757;SDS011;54562;47.620;18.786;2023-06-22T15:57:33;12.80;;;8.10;;
67757;SDS011;54562;47.620;18.786;2023-06-22T16:00:39;11.00;;;8.00;;
67757;SDS011;54562;47.620;18.786;2023-06-22T16:03:46;13.90;;;8.30;;
67757;SDS011;54562;47.620;18.786;2023-06-22T16:06:52;11.90;;;8.00;;
67757;SDS011;54562;47.620;18.786;2023-06-22T16:09:58;13.20;;;8.20;;
67757;SDS011;54562;47.620;18.786;2023-06-22T16:13:04;13.60;;;7.80;;
67757;SDS011;54562;47.620;18.786;2023-06-22T16:16:10;11.80;;;8.00;;
67757;SDS011;54562;47.620;18.786;2023-06-22T16:19:19;12.40;;;8.00;;
67757;SDS011;54562;47.620;18.786;2023-06-22T16:22:26;11.10;;;8.30;;
67757;SDS011;54562;47.620;18.786;2023-06-22T16:25:32;12.90;;;8.30;;
67757;SDS011;54562;47.620;18.786;2023-06-22T16:28:39;13.80;;;8.50;;
67757;SDS011;54562;47.620;18.786;2023-06-22T16:31:45;12.40;;;8.20;;
67757;SDS011;54562;47.620;18.786;2023-06-22T16:34:52;12.60;;;8.40;;
67757;SDS011;54562;47.620;18.786;2023-06-22T16:37:59;13.60;;;8.00;;
67757;SDS011;54562;47.620;18.786;2023-06-22T16:41:05;14.70;;;8.50;;
67757;SDS011;54562;47.620;18.786;2023-06-22T16:44:12;10.80;;;8.30;;
67757;SDS011;54562;47.620;18.786;2023-06-22T16:47:18;11.50;;;8.40;;
67757;SDS011;54562;47.620;18.786;2023-06-22T16:50:25;12.40;;;8.20;;
67757;SDS011;54562;47.620;18.786;2023-06-22T16:53:32;13.20;;;9.10;;
67757;SDS011;54562;47.620;18.786;2023-06-22T16:56:38;14.20;;;8.70;;
67757;SDS011;54562;47.620;18.786;2023-06-22T16:59:45;13.10;;;8.90;;
67757;SDS011;54562;47.620;18.786;2023-06-22T17:02:51;14.00;;;8.50;;
67757;SDS011;54562;47.620;18.786;2023-06-22T17:05:58;11.80;;;8.40;;
67757;SDS011;54562;47.620;18.786;2023-06-22T17:09:06;17.10;;;9.60;;
67757;SDS011;54562;47.620;18.786;2023-06-22T17:12:19;12.80;;;9.00;;
67757;SDS011;54562;47.620;18.786;2023-06-22T17:15:26;14.30;;;9.10;;
67757;SDS011;54562;47.620;18.786;2023-06-22T17:18:34;13.50;;;8.90;;
67757;SDS011;54562;47.620;18.786;2023-06-22T17:21:42;13.00;;;9.10;;
67757;SDS011;54562;47.620;18.786;2023-06-22T17:24:49;13.80;;;9.00;;
67757;SDS011;54562;47.620;18.786;2023-06-22T17:27:59;13.70;;;9.60;;
67757;SDS011;54562;47.620;18.786;2023-06-22T17:31:09;12.60;;;9.10;;
67757;SDS011;54562;47.620;18.786;2023-06-22T17:34:16;14.70;;;9.20;;
67757;SDS011;54562;47.620;18.786;2023-06-22T17:37:23;13.00;;;9.40;;
67757;SDS011;54562;47.620;18.786;2023-06-22T17:40:31;12.20;;;9.20;;
67757;SDS011;54562;47.620;18.786;2023-06-22T17:46:52;16.80;;;9.50;;
67757;SDS011;54562;47.620;18.786;2023-06-22T17:50:06;14.60;;;9.50;;
67757;SDS011;54562;47.620;18.786;2023-06-22T17:53:13;14.50;;;9.70;;
67757;SDS011;54562;47.620;18.786;2023-06-22T17:56:20;14.60;;;9.20;;
67757;SDS011;54562;47.620;18.786;2023-06-22T17:59:27;14.90;;;9.40;;
67757;SDS011;54562;47.620;18.786;2023-06-22T18:02:35;14.10;;;9.00;;
67757;SDS011;54562;47.620;18.786;2023-06-22T18:05:46;15.60;;;9.30;;
67757;SDS011;54562;47.620;18.786;2023-06-22T18:08:53;12.00;;;8.80;;
67757;SDS011;54562;47.620;18.786;2023-06-22T18:12:06;14.60;;;9.50;;
67757;SDS011;54562;47.620;18.786;2023-06-22T18:15:15;15.50;;;9.60;;
67757;SDS011;54562;47.620;18.786;2023-06-22T18:18:22;15.40;;;9.70;;
67757;SDS011;54562;47.620;18.786;2023-06-22T18:21:29;12.40;;;8.90;;
67757;SDS011;54562;47.620;18.786;2023-06-22T18:24:35;13.60;;;9.20;;
67757;SDS011;54562;47.620;18.786;2023-06-22T18:27:42;13.10;;;9.20;;
67757;SDS011;54562;47.620;18.786;2023-06-22T18:30:49;16.20;;;9.50;;
67757;SDS011;54562;47.620;18.786;2023-06-22T18:33:57;16.90;;;9.90;;
67757;SDS011;54562;47.620;18.786;2023-06-22T18:37:08;17.00;;;9.50;;
67757;SDS011;54562;47.620;18.786;2023-06-22T18:40:16;18.20;;;9.90;;
67757;SDS011;54562;47.620;18.786;2023-06-22T18:43:23;14.90;;;9.30;;